Time;durP1;ratioP1;P1;durP2;ratioP2;P2;SDS_P1;SDS_P2;PMS_P1;PMS_P2;Temp;Humidity;BMP_temperature;BMP_pressure;BME280_temperature;BME280_humidity;BME280_pressure;Samples;Min_cycle;Max_cycle;Signal;HPM_P1;HPM_P2
2020/12/24 00:01:49;;;;;;;7.60;1.10;;;8.90;88.40;;;;;;5092836;28;20032;-64
2020/12/24 00:04:15;;;;;;;5.75;0.93;;;8.90;88.60;;;;;;5093013;28;20509;-64
2020/12/24 00:06:40;;;;;;;7.60;0.88;;;8.90;88.50;;;;;;5092188;28;20035;-64
2020/12/24 00:09:06;;;;;;;10.02;0.82;;;8.90;88.30;;;;;;5092889;28;20380;-64
2020/12/24 00:11:32;;;;;;;2.03;0.82;;;8.90;88.20;;;;;;5096032;28;20437;-64
2020/12/24 00:13:57;;;;;;;2.92;0.70;;;8.90;88.40;;;;;;5095642;28;20035;-64
2020/12/24 00:16:23;;;;;;;4.72;0.40;;;8.80;88.10;;;;;;5096592;28;20040;-64
2020/12/24 00:18:49;;;;;;;4.20;1.27;;;8.90;88.30;;;;;;5096288;28;20028;-64
2020/12/24 00:21:14;;;;;;;1.77;0.70;;;8.90;88.60;;;;;;5095665;28;20024;-64
2020/12/24 00:23:40;;;;;;;3.03;0.55;;;8.80;88.20;;;;;;5096448;28;20038;-64
2020/12/24 00:26:05;;;;;;;2.42;0.68;;;8.80;88.20;;;;;;5096194;28;20434;-64
2020/12/24 00:28:32;;;;;;;1.23;0.70;;;8.80;88.10;;;;;;5095398;28;20479;-64
2020/12/24 00:30:59;;;;;;;3.35;0.82;;;8.80;88.20;;;;;;5096161;28;20032;-64
2020/12/24 00:33:24;;;;;;;2.17;0.90;;;8.80;88.30;;;;;;5096231;28;20059;-64
2020/12/24 00:35:50;;;;;;;8.55;1.20;;;8.80;88.20;;;;;;5095322;28;20113;-64
2020/12/24 00:38:16;;;;;;;3.88;0.68;;;8.70;88.00;;;;;;5096062;28;20028;-64
2020/12/24 00:40:41;;;;;;;3.92;0.77;;;8.70;88.10;;;;;;5095640;28;20059;-64
2020/12/24 00:43:07;;;;;;;5.68;0.93;;;8.70;88.10;;;;;;5095084;28;20024;-64
2020/12/24 00:45:33;;;;;;;3.28;1.00;;;8.70;88.00;;;;;;5095807;28;20089;-64
2020/12/24 00:47:58;;;;;;;1.15;0.65;;;8.70;88.30;;;;;;5095962;28;20032;-64
2020/12/24 00:50:24;;;;;;;3.95;0.85;;;8.70;88.50;;;;;;5095101;28;20506;-64
2020/12/24 00:52:49;;;;;;;1.95;0.85;;;8.70;88.20;;;;;;5094368;28;20036;-64
2020/12/24 00:55:15;;;;;;;1.25;0.70;;;8.70;88.20;;;;;;5093851;28;20063;-64
2020/12/24 00:57:41;;;;;;;6.75;1.17;;;8.60;88.30;;;;;;5094470;28;20127;-64
2020/12/24 01:00:08;;;;;;;3.92;0.93;;;8.70;88.30;;;;;;5094377;28;20035;-64
2020/12/24 01:02:35;;;;;;;1.58;0.85;;;8.60;88.30;;;;;;5094661;28;20062;-64
2020/12/24 01:05:01;;;;;;;5.05;1.15;;;8.60;88.20;;;;;;5095432;28;20480;-64
2020/12/24 01:07:27;;;;;;;1.30;1.05;;;8.60;88.10;;;;;;5095713;28;20024;-64
2020/12/24 01:09:52;;;;;;;5.15;0.93;;;8.60;88.20;;;;;;5094642;28;20076;-64
2020/12/24 01:12:18;;;;;;;0.95;0.90;;;8.60;88.20;;;;;;5095239;28;20405;-64
2020/12/24 01:14:44;;;;;;;5.88;0.80;;;8.60;88.10;;;;;;5095148;28;20473;-64
2020/12/24 01:17:10;;;;;;;0.88;0.60;;;8.60;87.80;;;;;;5094467;28;20533;-64
2020/12/24 01:19:35;;;;;;;5.93;1.05;;;8.60;87.80;;;;;;5095359;28;20028;-64
2020/12/24 01:22:01;;;;;;;0.85;0.80;;;8.60;87.80;;;;;;5094440;28;20123;-64
2020/12/24 01:24:27;;;;;;;2.88;0.85;;;8.60;87.60;;;;;;5094433;28;20153;-64
2020/12/24 01:26:52;;;;;;;6.63;1.02;;;8.50;87.70;;;;;;5095064;28;20077;-64
2020/12/24 01:29:18;;;;;;;4.95;1.00;;;8.60;87.30;;;;;;5095093;28;20471;-64
2020/12/24 01:31:48;;;;;;;2.33;0.77;;;8.50;87.50;;;;;;5094270;28;20036;-64
2020/12/24 01:34:15;;;;;;;3.20;0.77;;;8.50;87.50;;;;;;5095181;28;20115;-64
2020/12/24 01:36:41;;;;;;;2.58;0.60;;;8.50;87.60;;;;;;5094920;28;20039;-64
2020/12/24 01:39:07;;;;;;;0.70;0.70;;;8.40;87.30;;;;;;5093723;28;20085;-64
2020/12/24 01:41:33;;;;;;;4.03;1.33;;;8.50;87.50;;;;;;5094734;28;20039;-64
2020/12/24 01:43:59;;;;;;;8.40;0.88;;;8.40;87.00;;;;;;5094634;28;20452;-64
2020/12/24 01:46:25;;;;;;;1.80;0.70;;;8.40;87.50;;;;;;5093925;28;20032;-64
2020/12/24 01:48:51;;;;;;;4.30;0.93;;;8.40;87.10;;;;;;5094422;28;20071;-64
2020/12/24 01:51:25;;;;;;;1.38;0.45;;;8.40;87.00;;;;;;5094590;28;20040;-64
2020/12/24 01:53:52;;;;;;;3.97;0.90;;;8.30;86.80;;;;;;5094735;28;20024;-64
2020/12/24 01:56:17;;;;;;;6.97;1.20;;;8.40;86.80;;;;;;5094397;28;20475;-65
2020/12/24 01:58:44;;;;;;;1.20;0.85;;;8.30;87.00;;;;;;5093649;28;20028;-64
2020/12/24 02:01:09;;;;;;;3.80;0.95;;;8.40;86.90;;;;;;5094582;28;20048;-64
2020/12/24 02:03:35;;;;;;;1.98;0.88;;;8.30;87.20;;;;;;5094329;28;20485;-64
2020/12/24 02:06:00;;;;;;;5.70;1.48;;;8.30;87.40;;;;;;5093559;28;20141;-64
2020/12/24 02:08:26;;;;;;;2.30;0.93;;;8.40;87.30;;;;;;5094225;28;20024;-64
2020/12/24 02:10:52;;;;;;;5.28;0.73;;;8.40;87.40;;;;;;5094179;28;20152;-64
2020/12/24 02:13:17;;;;;;;0.55;0.50;;;8.40;87.20;;;;;;5093469;28;20364;-64
2020/12/24 02:15:43;;;;;;;3.40;0.90;;;8.30;87.00;;;;;;5094336;28;20032;-64
2020/12/24 02:18:09;;;;;;;1.73;0.77;;;8.30;86.70;;;;;;5094188;28;20036;-64
2020/12/24 02:20:39;;;;;;;2.75;0.70;;;8.30;87.10;;;;;;5093203;28;20024;-64
2020/12/24 02:23:05;;;;;;;6.80;1.10;;;8.30;87.10;;;;;;5094002;28;20039;-64
2020/12/24 02:25:30;;;;;;;1.35;0.90;;;8.30;87.30;;;;;;5093849;28;20020;-64
2020/12/24 02:27:56;;;;;;;4.03;1.00;;;8.30;87.10;;;;;;5093325;28;20476;-64
2020/12/24 02:30:22;;;;;;;3.22;1.23;;;8.30;86.90;;;;;;5093808;28;20119;-64
2020/12/24 02:32:47;;;;;;;3.38;1.23;;;8.30;86.60;;;;;;5093612;28;20054;-64
2020/12/24 02:35:13;;;;;;;2.33;1.17;;;8.30;86.70;;;;;;5092990;28;20024;-64
2020/12/24 02:37:38;;;;;;;5.20;1.45;;;8.30;86.60;;;;;;5094054;28;20039;-64
2020/12/24 02:40:04;;;;;;;2.22;1.23;;;8.40;86.80;;;;;;5093440;28;20051;-64
2020/12/24 02:42:30;;;;;;;2.35;1.08;;;8.30;86.10;;;;;;5092941;28;20499;-64
2020/12/24 02:44:55;;;;;;;5.13;1.30;;;8.40;86.30;;;;;;5093581;28;20038;-64
2020/12/24 02:47:21;;;;;;;1.65;0.75;;;8.30;86.20;;;;;;5093750;28;20085;-64
2020/12/24 02:49:47;;;;;;;3.30;1.50;;;8.30;86.30;;;;;;5092854;28;20114;-64
2020/12/24 02:52:12;;;;;;;1.95;0.90;;;8.30;86.40;;;;;;5093687;28;20042;-64
2020/12/24 02:54:38;;;;;;;7.97;2.20;;;8.30;86.40;;;;;;5093493;28;20429;-64
2020/12/24 02:57:04;;;;;;;5.05;1.42;;;8.30;86.20;;;;;;5093443;28;20030;-64
2020/12/24 02:59:29;;;;;;;6.70;1.40;;;8.30;85.90;;;;;;5093651;28;20062;-64
2020/12/24 03:01:55;;;;;;;3.58;1.35;;;8.30;85.80;;;;;;5092660;28;20039;-64
2020/12/24 03:04:21;;;;;;;5.40;1.63;;;8.30;85.70;;;;;;5093883;28;20028;-64
2020/12/24 03:06:46;;;;;;;14.57;1.38;;;8.30;85.40;;;;;;5093396;28;20032;-64
2020/12/24 03:09:12;;;;;;;6.63;1.45;;;8.30;85.30;;;;;;5092883;28;20035;-64
2020/12/24 03:11:48;;;;;;;4.65;1.83;;;8.40;85.10;;;;;;5093547;28;20119;-64
2020/12/24 03:14:15;;;;;;;7.47;1.50;;;8.40;84.80;;;;;;5093477;28;20101;-64
2020/12/24 03:16:40;;;;;;;8.13;2.75;;;8.40;84.50;;;;;;5092799;28;20050;-64
2020/12/24 03:19:06;;;;;;;3.13;1.20;;;8.50;84.40;;;;;;5093435;28;20028;-64
2020/12/24 03:21:31;;;;;;;6.40;1.20;;;8.50;84.30;;;;;;5093104;28;20506;-64
2020/12/24 03:23:57;;;;;;;4.07;1.02;;;8.50;84.20;;;;;;5092497;28;20016;-64
2020/12/24 03:26:22;;;;;;;7.30;1.25;;;8.50;84.00;;;;;;5093193;28;20494;-64
2020/12/24 03:28:48;;;;;;;2.67;1.58;;;8.60;84.00;;;;;;5093508;28;20032;-64
2020/12/24 03:31:20;;;;;;;3.35;1.10;;;8.60;83.80;;;;;;5092493;28;20040;-64
2020/12/24 03:33:45;;;;;;;6.47;1.00;;;8.60;84.30;;;;;;5093112;28;20036;-64
2020/12/24 03:36:11;;;;;;;1.83;1.30;;;8.70;83.70;;;;;;5093114;28;20048;-64
2020/12/24 03:38:37;;;;;;;6.93;1.25;;;8.70;83.70;;;;;;5092576;28;20160;-64
2020/12/24 03:41:02;;;;;;;3.90;1.13;;;8.70;83.60;;;;;;5091756;28;20518;-64
2020/12/24 03:43:28;;;;;;;4.15;1.23;;;8.80;83.50;;;;;;5093255;28;20059;-64
2020/12/24 03:45:53;;;;;;;4.57;1.23;;;8.80;83.40;;;;;;5094920;28;20395;-64
2020/12/24 03:48:20;;;;;;;5.78;1.35;;;8.80;83.30;;;;;;5096957;28;20024;-64
2020/12/24 03:50:45;;;;;;;4.07;1.30;;;8.90;83.10;;;;;;5096894;28;20028;-64
2020/12/24 03:53:11;;;;;;;7.32;1.52;;;8.90;83.00;;;;;;5096035;28;20036;-64
2020/12/24 03:55:36;;;;;;;4.75;1.23;;;8.90;82.90;;;;;;5096779;28;20032;-64
2020/12/24 03:58:02;;;;;;;5.15;1.20;;;8.90;82.70;;;;;;5096258;28;20042;-64
2020/12/24 04:00:28;;;;;;;6.78;1.35;;;9.00;82.60;;;;;;5096739;28;20016;-64
2020/12/24 04:02:53;;;;;;;4.60;0.90;;;9.00;82.50;;;;;;5096582;28;20036;-64
2020/12/24 04:05:19;;;;;;;3.20;1.00;;;9.00;82.30;;;;;;5096039;28;20020;-64
2020/12/24 04:07:49;;;;;;;2.40;1.10;;;9.10;82.30;;;;;;5096751;28;20379;-64
2020/12/24 04:10:15;;;;;;;7.32;1.25;;;9.10;82.10;;;;;;5096866;28;20046;-64
2020/12/24 04:12:41;;;;;;;3.97;1.15;;;9.10;82.00;;;;;;5095572;28;20044;-64
2020/12/24 04:15:06;;;;;;;5.82;1.52;;;9.10;81.90;;;;;;5096413;28;20032;-64
2020/12/24 04:17:32;;;;;;;3.28;1.00;;;9.10;81.80;;;;;;5096620;28;20039;-64
2020/12/24 04:19:58;;;;;;;3.33;1.00;;;9.20;81.90;;;;;;5095550;28;20028;-64
2020/12/24 04:22:23;;;;;;;2.83;0.80;;;9.10;81.70;;;;;;5096174;28;20028;-64
2020/12/24 04:24:49;;;;;;;3.45;0.85;;;9.20;81.60;;;;;;5096395;28;20024;-64
2020/12/24 04:27:14;;;;;;;2.95;1.10;;;9.20;81.50;;;;;;5095449;28;20077;-64
2020/12/24 04:29:40;;;;;;;1.98;0.82;;;9.20;81.50;;;;;;5096368;28;20028;-64
2020/12/24 04:32:06;;;;;;;6.15;1.08;;;9.30;81.60;;;;;;5096029;28;20036;-64
2020/12/24 04:34:31;;;;;;;3.03;1.33;;;9.20;81.50;;;;;;5095155;28;20031;-64
2020/12/24 04:36:57;;;;;;;6.45;1.23;;;9.20;81.50;;;;;;5096173;28;20386;-64
2020/12/24 04:39:22;;;;;;;2.85;0.88;;;9.30;81.50;;;;;;5096018;28;20490;-64
2020/12/24 04:41:48;;;;;;;2.30;0.75;;;9.20;81.50;;;;;;5095161;28;20112;-64
2020/12/24 04:44:14;;;;;;;1.10;0.85;;;9.20;81.50;;;;;;5095966;28;20028;-65
2020/12/24 04:46:42;;;;;;;4.38;1.05;;;9.20;81.60;;;;;;5095851;28;20039;-64
2020/12/24 04:49:09;;;;;;;3.92;1.00;;;9.20;81.70;;;;;;5095082;28;20032;-64
2020/12/24 04:51:35;;;;;;;2.63;0.65;;;9.10;81.80;;;;;;5095561;28;20032;-64
2020/12/24 04:54:02;;;;;;;0.57;0.52;;;9.10;81.90;;;;;;5095867;28;20028;-64
2020/12/24 04:56:27;;;;;;;4.35;1.02;;;9.10;82.00;;;;;;5093868;28;20028;-64
2020/12/24 04:58:54;;;;;;;3.60;0.90;;;9.10;82.20;;;;;;5095685;28;20027;-64
2020/12/24 05:01:20;;;;;;;5.45;1.17;;;9.00;82.20;;;;;;5094937;28;20491;-64
2020/12/24 05:03:46;;;;;;;1.35;0.85;;;9.00;82.30;;;;;;5095326;28;20420;-64
2020/12/24 05:06:18;;;;;;;1.90;0.80;;;8.90;83.10;;;;;;5095300;28;20506;-64
2020/12/24 05:08:54;;;;;;;2.10;1.15;;;8.90;82.60;;;;;;5094727;28;20170;-64
2020/12/24 05:11:30;;;;;;;1.38;0.75;;;8.90;82.70;;;;;;5095406;28;20100;-64
2020/12/24 05:14:15;;;;;;;1.90;0.80;;;8.90;82.80;;;;;;5095384;28;20035;-64
2020/12/24 05:17:02;;;;;;;1.60;0.85;;;8.90;82.90;;;;;;5094772;28;20064;-64
2020/12/24 05:19:30;;;;;;;3.72;1.02;;;8.90;82.90;;;;;;5095353;28;20036;-64
2020/12/24 05:21:57;;;;;;;3.42;0.85;;;8.80;82.90;;;;;;5095281;28;20058;-64
2020/12/24 05:24:33;;;;;;;0.20;0.20;;;8.80;83.00;;;;;;5094368;28;20057;-64
2020/12/24 05:27:20;;;;;;;1.55;0.80;;;8.80;83.10;;;;;;5095802;28;20040;-64
2020/12/24 05:29:50;;;;;;;0.30;0.30;;;8.70;83.10;;;;;;5094533;28;20032;-64
2020/12/24 05:32:27;;;;;;;0.43;0.43;;;8.70;83.20;;;;;;5095186;28;20178;-64
2020/12/24 05:35:23;;;;;;;1.55;0.70;;;8.60;83.40;;;;;;5095000;28;20039;-64
2020/12/24 05:37:50;;;;;;;6.78;1.40;;;8.60;83.50;;;;;;5077820;28;20486;-64
2020/12/24 05:40:29;;;;;;;4.18;1.38;;;8.60;83.70;;;;;;5094625;28;20052;-64
2020/12/24 05:42:57;;;;;;;2.88;1.30;;;8.60;83.80;;;;;;5094884;28;20031;-64
2020/12/24 05:45:30;;;;;;;3.70;1.33;;;8.60;83.80;;;;;;5093965;28;20051;-64
2020/12/24 05:48:13;;;;;;;3.40;1.27;;;8.50;83.80;;;;;;5094733;28;20035;-64
2020/12/24 05:50:41;;;;;;;1.23;1.00;;;8.60;83.80;;;;;;5093901;28;20114;-64
2020/12/24 05:53:12;;;;;;;2.78;1.38;;;8.60;83.70;;;;;;5094701;28;20047;-64
2020/12/24 05:55:39;;;;;;;7.85;1.55;;;8.70;83.70;;;;;;5094574;28;20134;-64
2020/12/24 05:58:09;;;;;;;2.15;1.45;;;8.70;84.30;;;;;;5093724;28;20143;-64
2020/12/24 06:00:39;;;;;;;5.03;1.38;;;8.80;83.50;;;;;;5094639;28;20032;-64
2020/12/24 06:03:10;;;;;;;5.38;1.35;;;8.80;83.40;;;;;;5094645;28;20150;-64
2020/12/24 06:06:01;;;;;;;3.88;1.70;;;8.80;83.40;;;;;;5093595;28;20028;-64
2020/12/24 06:08:29;;;;;;;1.83;1.30;;;8.80;83.40;;;;;;5093940;28;20031;-64
2020/12/24 06:11:08;;;;;;;2.53;1.50;;;8.80;83.20;;;;;;5094478;28;20028;-64
2020/12/24 06:13:42;;;;;;;2.72;1.15;;;8.80;83.20;;;;;;5093404;28;20479;-64
2020/12/24 06:16:12;;;;;;;4.65;1.30;;;8.80;83.10;;;;;;5094206;28;20032;-64
2020/12/24 06:18:40;;;;;;;1.88;1.20;;;8.80;83.00;;;;;;5093413;28;20028;-65
2020/12/24 06:21:16;;;;;;;9.38;1.17;;;8.90;83.10;;;;;;5094247;28;20029;-64
2020/12/24 06:23:59;;;;;;;5.07;1.30;;;8.90;83.00;;;;;;5094203;28;20364;-64
2020/12/24 06:26:39;;;;;;;5.60;2.30;;;8.90;83.00;;;;;;5093451;28;20032;-64
2020/12/24 06:29:04;;;;;;;2.75;1.63;;;8.90;82.90;;;;;;5094113;28;20028;-66
2020/12/24 06:31:33;;;;;;;2.97;1.20;;;8.90;82.80;;;;;;5094016;28;20414;-66
2020/12/24 06:34:19;;;;;;;3.28;1.30;;;8.90;82.80;;;;;;5092999;28;20383;-64
2020/12/24 06:36:45;;;;;;;4.57;1.23;;;8.90;82.70;;;;;;5093763;28;20119;-63
2020/12/24 06:39:10;;;;;;;5.72;1.52;;;9.00;82.60;;;;;;5093452;28;20119;-64
2020/12/24 06:41:38;;;;;;;6.97;1.30;;;8.90;82.60;;;;;;5092938;28;20032;-64
2020/12/24 06:44:08;;;;;;;4.72;1.60;;;9.00;82.50;;;;;;5093897;28;20043;-64
2020/12/24 06:46:56;;;;;;;4.13;1.10;;;9.00;82.50;;;;;;5094094;28;20043;-64
2020/12/24 06:49:32;;;;;;;5.70;1.30;;;9.00;82.50;;;;;;5093849;28;20123;-64
2020/12/24 06:51:58;;;;;;;7.55;1.40;;;9.00;82.40;;;;;;5093592;28;20047;-64
2020/12/24 06:54:26;;;;;;;3.95;1.40;;;9.00;82.40;;;;;;5091635;28;20031;-64
2020/12/24 06:57:24;;;;;;;3.58;1.15;;;9.00;82.40;;;;;;5092224;28;20727;-64
2020/12/24 07:00:19;;;;;;;2.88;1.13;;;9.00;82.40;;;;;;5091354;28;20066;-64
2020/12/24 07:02:49;;;;;;;6.03;1.08;;;9.00;82.40;;;;;;5091287;28;20027;-64
2020/12/24 07:05:53;;;;;;;3.30;1.05;;;9.00;82.20;;;;;;5089200;28;20028;-64
2020/12/24 07:08:33;;;;;;;5.38;1.00;;;9.10;82.30;;;;;;5009027;28;20151;-65
2020/12/24 07:11:01;;;;;;;3.08;1.00;;;9.10;82.30;;;;;;5007839;28;20034;-62
2020/12/24 07:13:42;;;;;;;10.98;1.42;;;9.00;82.30;;;;;;5056453;28;20036;-63
2020/12/24 07:16:12;;;;;;;4.85;1.17;;;9.00;82.40;;;;;;5090691;28;20032;-64
2020/12/24 07:18:39;;;;;;;12.98;1.45;;;9.00;82.20;;;;;;5089673;28;20027;-65
2020/12/24 07:21:06;;;;;;;15.35;1.70;;;9.00;82.20;;;;;;5094713;28;20028;-65
2020/12/24 07:23:40;;;;;;;10.20;1.23;;;9.10;82.10;;;;;;5095257;28;20502;-63
2020/12/24 07:26:08;;;;;;;4.63;1.45;;;9.10;82.00;;;;;;5093845;28;20032;-64
2020/12/24 07:28:36;;;;;;;13.10;1.48;;;9.10;81.80;;;;;;5096100;28;20028;-63
2020/12/24 07:31:06;;;;;;;4.47;1.02;;;9.10;81.70;;;;;;5092023;28;20043;-62
2020/12/24 07:33:33;;;;;;;9.98;1.63;;;9.00;81.50;;;;;;5095664;28;20576;-64
2020/12/24 07:35:59;;;;;;;15.77;1.48;;;9.10;81.50;;;;;;5095281;28;20107;-64
2020/12/24 07:38:27;;;;;;;9.90;1.88;;;9.00;81.20;;;;;;5094647;28;20107;-65
2020/12/24 07:40:55;;;;;;;15.50;1.65;;;9.00;81.10;;;;;;5094308;28;20043;-65
2020/12/24 07:43:21;;;;;;;14.90;1.92;;;9.00;81.10;;;;;;5092607;28;20543;-65
2020/12/24 07:45:46;;;;;;;9.80;1.63;;;9.00;81.00;;;;;;5095470;28;20067;-65
2020/12/24 07:48:17;;;;;;;12.75;1.73;;;9.00;81.00;;;;;;5095219;28;20032;-66
2020/12/24 07:50:46;;;;;;;17.13;1.63;;;9.00;80.90;;;;;;5094561;28;20483;-65
2020/12/24 07:53:19;;;;;;;5.00;1.27;;;9.00;80.80;;;;;;5093044;28;20369;-65
2020/12/24 07:55:45;;;;;;;;;;;9.00;80.70;;;;;;5096166;28;20081;-65
2020/12/24 07:58:12;;;;;;;4.57;1.42;;;9.00;80.90;;;;;;5096101;28;19908;-65
2020/12/24 08:00:43;;;;;;;16.10;1.60;;;9.00;80.50;;;;;;5096410;28;20047;-63
2020/12/24 08:03:11;;;;;;;7.45;1.42;;;8.90;80.40;;;;;;5095658;28;20039;-63
2020/12/24 08:05:37;;;;;;;16.38;2.03;;;8.90;80.40;;;;;;5091148;28;20110;-65
2020/12/24 08:08:03;;;;;;;12.77;2.00;;;8.90;80.30;;;;;;5092855;28;20460;-64
2020/12/24 08:10:29;;;;;;;4.75;1.05;;;8.90;80.40;;;;;;5094611;28;20020;-64
2020/12/24 08:13:02;;;;;;;15.95;2.60;;;8.90;80.40;;;;;;5094224;28;20044;-64
2020/12/24 08:15:32;;;;;;;7.82;1.25;;;8.90;80.30;;;;;;5093246;28;20046;-64
2020/12/24 08:18:02;;;;;;;11.43;1.95;;;8.90;80.20;;;;;;5095132;28;20441;-64
2020/12/24 08:20:39;;;;;;;17.58;2.00;;;8.90;80.20;;;;;;5094341;28;20024;-64
2020/12/24 08:23:19;;;;;;;10.70;1.75;;;8.90;80.20;;;;;;5092359;28;20119;-64
2020/12/24 08:25:52;;;;;;;6.85;1.42;;;8.90;80.10;;;;;;5091682;28;20443;-64
2020/12/24 08:28:19;;;;;;;11.18;2.50;;;8.90;80.10;;;;;;5094993;28;20386;-64
2020/12/24 08:30:46;;;;;;;11.40;1.30;;;8.90;79.90;;;;;;5094624;28;20391;-64
2020/12/24 08:33:13;;;;;;;21.42;1.65;;;8.90;79.80;;;;;;5093913;28;20090;-64
2020/12/24 08:35:39;;;;;;;8.18;1.73;;;8.90;79.80;;;;;;5095784;28;20024;-65
2020/12/24 08:38:18;;;;;;;17.10;1.75;;;8.90;79.80;;;;;;5096017;28;20525;-64
2020/12/24 08:40:45;;;;;;;13.82;1.17;;;8.90;80.00;;;;;;5095104;28;20040;-64
2020/12/24 08:43:12;;;;;;;15.05;1.35;;;8.90;80.10;;;;;;5095697;28;20070;-64
2020/12/24 08:45:50;;;;;;;4.28;1.05;;;8.90;80.40;;;;;;5095619;28;20417;-64
2020/12/24 08:48:28;;;;;;;7.00;1.23;;;8.90;80.60;;;;;;5095287;28;20028;-63
2020/12/24 08:50:54;;;;;;;10.05;1.13;;;8.90;80.70;;;;;;5095732;28;20031;-63
2020/12/24 08:53:31;;;;;;;10.85;1.80;;;8.80;80.80;;;;;;5095498;28;20043;-63
2020/12/24 08:55:57;;;;;;;6.93;1.30;;;8.80;80.90;;;;;;5095670;28;20032;-63
2020/12/24 08:58:23;;;;;;;9.93;0.85;;;8.90;81.00;;;;;;5093898;28;20073;-64
2020/12/24 09:00:48;;;;;;;9.45;1.27;;;8.90;81.00;;;;;;5093597;28;20019;-63
2020/12/24 09:03:21;;;;;;;6.15;1.38;;;8.90;81.00;;;;;;5094059;28;20483;-64
2020/12/24 09:05:47;;;;;;;19.48;2.25;;;9.00;81.00;;;;;;5091253;28;20501;-63
2020/12/24 09:08:27;;;;;;;11.02;1.40;;;9.00;80.90;;;;;;5093508;28;20040;-63
2020/12/24 09:10:55;;;;;;;7.65;1.25;;;9.00;80.90;;;;;;5092238;28;20082;-63
2020/12/24 09:13:21;;;;;;;8.30;1.50;;;9.00;80.90;;;;;;5093660;28;20608;-63
2020/12/24 09:15:47;;;;;;;6.88;0.93;;;9.00;80.80;;;;;;5090371;28;20058;-63
2020/12/24 09:18:13;;;;;;;7.72;1.20;;;9.00;80.80;;;;;;5093977;28;20497;-61
2020/12/24 09:20:39;;;;;;;7.57;1.38;;;9.00;80.80;;;;;;5093751;28;20479;-62
2020/12/24 09:23:10;;;;;;;4.85;1.10;;;9.00;80.70;;;;;;5092921;28;20073;-62
2020/12/24 09:25:44;;;;;;;9.68;1.10;;;9.00;80.50;;;;;;5093746;28;20058;-62
2020/12/24 09:28:26;;;;;;;7.70;1.00;;;9.00;80.70;;;;;;5091677;28;20024;-63
2020/12/24 09:30:55;;;;;;;8.02;1.02;;;9.00;80.80;;;;;;5092626;28;20395;-62
2020/12/24 09:33:20;;;;;;;8.57;1.02;;;9.00;80.70;;;;;;5093675;28;20036;-62
2020/12/24 09:35:46;;;;;;;12.93;1.88;;;9.00;80.90;;;;;;5092531;28;20035;-62
2020/12/24 09:38:12;;;;;;;3.45;0.98;;;9.00;80.60;;;;;;5092041;28;20031;-62
2020/12/24 09:40:38;;;;;;;8.40;1.13;;;9.00;80.30;;;;;;5092506;28;20040;-63
2020/12/24 09:43:05;;;;;;;7.43;0.80;;;9.00;79.70;;;;;;5091125;28;20027;-63
2020/12/24 09:45:31;;;;;;;7.78;1.80;;;9.10;80.20;;;;;;5092098;28;20039;-63
2020/12/24 09:47:57;;;;;;;11.70;1.42;;;9.10;79.40;;;;;;5091964;28;20024;-63
2020/12/24 09:50:24;;;;;;;5.45;1.00;;;9.00;79.20;;;;;;5091322;28;20525;-63
2020/12/24 09:52:49;;;;;;;10.38;1.30;;;9.10;79.10;;;;;;5093435;28;20044;-63
2020/12/24 09:55:15;;;;;;;9.15;1.30;;;9.10;79.30;;;;;;5093534;28;20020;-63
2020/12/24 09:57:41;;;;;;;10.20;1.20;;;9.10;79.40;;;;;;5093002;28;20028;-63
2020/12/24 10:00:10;;;;;;;9.88;1.30;;;9.10;79.40;;;;;;5094082;28;20020;-63
2020/12/24 10:02:36;;;;;;;13.75;1.60;;;9.20;79.20;;;;;;5094638;28;20103;-63
2020/12/24 10:05:06;;;;;;;4.68;1.27;;;9.20;79.10;;;;;;5092957;28;20099;-63
2020/12/24 10:07:32;;;;;;;5.90;1.20;;;9.20;79.20;;;;;;5092548;28;20039;-63
2020/12/24 10:09:58;;;;;;;7.15;1.05;;;9.20;79.40;;;;;;5092170;28;20387;-62
2020/12/24 10:12:25;;;;;;;5.20;1.20;;;9.10;79.50;;;;;;5091770;28;20036;-62
2020/12/24 10:14:51;;;;;;;3.50;0.73;;;9.10;79.80;;;;;;5091555;28;20032;-63
2020/12/24 10:17:17;;;;;;;9.55;0.98;;;9.20;80.10;;;;;;5091436;28;20106;-64
2020/12/24 10:19:44;;;;;;;11.38;1.48;;;9.20;80.00;;;;;;5090406;28;20558;-63
2020/12/24 10:22:14;;;;;;;0.90;0.40;;;9.20;80.20;;;;;;5092003;28;20508;-64
2020/12/24 10:24:41;;;;;;;2.97;0.60;;;9.30;80.40;;;;;;5092817;28;20100;-63
2020/12/24 10:27:11;;;;;;;3.40;0.68;;;9.30;80.40;;;;;;5091720;28;20020;-63
2020/12/24 10:29:37;;;;;;;8.63;1.10;;;9.30;80.50;;;;;;5092650;28;20036;-63
2020/12/24 10:32:03;;;;;;;3.30;1.00;;;9.30;80.40;;;;;;5091763;28;20105;-64
2020/12/24 10:34:28;;;;;;;8.82;1.52;;;9.30;80.60;;;;;;5092478;28;20464;-63
2020/12/24 10:36:56;;;;;;;7.05;0.90;;;9.30;80.30;;;;;;5092358;28;20043;-63
2020/12/24 10:39:21;;;;;;;4.95;1.25;;;9.30;80.20;;;;;;5091379;28;20055;-64
2020/12/24 10:41:50;;;;;;;6.47;1.23;;;9.30;80.20;;;;;;5092641;28;20079;-63
2020/12/24 10:44:17;;;;;;;3.75;0.93;;;9.30;80.10;;;;;;5092190;28;20506;-63
2020/12/24 10:46:43;;;;;;;4.80;1.10;;;9.30;80.10;;;;;;5092549;28;20036;-63
2020/12/24 10:49:08;;;;;;;7.10;1.15;;;9.30;80.10;;;;;;5093856;28;20078;-64
2020/12/24 10:51:34;;;;;;;2.08;0.73;;;9.30;80.20;;;;;;5093404;28;20073;-62
2020/12/24 10:54:00;;;;;;;2.95;0.68;;;9.30;80.20;;;;;;5093085;28;20056;-62
2020/12/24 10:56:25;;;;;;;4.90;1.02;;;9.30;80.20;;;;;;5093793;28;20169;-62
2020/12/24 10:58:51;;;;;;;10.43;1.13;;;9.30;80.20;;;;;;5093740;28;20546;-64
2020/12/24 11:01:19;;;;;;;11.98;1.40;;;9.40;80.20;;;;;;5092816;28;20032;-65
2020/12/24 11:03:45;;;;;;;11.32;2.58;;;9.40;80.20;;;;;;5093385;28;20491;-65
2020/12/24 11:06:22;;;;;;;14.65;1.40;;;9.40;80.20;;;;;;5093592;28;20036;-64
2020/12/24 11:08:49;;;;;;;14.27;1.50;;;9.40;80.20;;;;;;5093000;28;20046;-64
2020/12/24 11:11:16;;;;;;;8.38;0.93;;;9.50;80.30;;;;;;5093385;28;20498;-65
2020/12/24 11:13:45;;;;;;;6.30;1.02;;;9.50;80.30;;;;;;5093505;28;20032;-65
2020/12/24 11:16:24;;;;;;;7.43;1.10;;;9.50;80.10;;;;;;5092571;28;20543;-64
2020/12/24 11:18:51;;;;;;;4.88;1.00;;;9.60;80.10;;;;;;5093322;28;20526;-65
2020/12/24 11:21:17;;;;;;;6.13;1.38;;;9.60;80.10;;;;;;5092137;28;20036;-65
2020/12/24 11:23:43;;;;;;;9.95;1.80;;;9.60;80.00;;;;;;5093079;28;20029;-71
2020/12/24 11:26:08;;;;;;;5.65;1.23;;;9.60;79.80;;;;;;5093193;28;20042;-64
2020/12/24 11:28:34;;;;;;;0.88;0.55;;;9.60;79.80;;;;;;5092667;28;20483;-64
2020/12/24 11:31:00;;;;;;;12.65;1.95;;;9.60;79.90;;;;;;5093282;28;20032;-65
2020/12/24 11:33:25;;;;;;;11.40;1.58;;;9.60;80.10;;;;;;5093130;28;20491;-65
2020/12/24 11:35:51;;;;;;;20.23;1.80;;;9.50;80.00;;;;;;5092701;28;20069;-64
2020/12/24 11:38:16;;;;;;;10.00;1.58;;;9.50;80.10;;;;;;5093225;28;20356;-65
2020/12/24 11:40:42;;;;;;;8.25;1.50;;;9.40;79.80;;;;;;5093118;28;20055;-65
2020/12/24 11:43:08;;;;;;;3.70;0.63;;;9.40;79.60;;;;;;5092296;28;20031;-63
2020/12/24 11:45:33;;;;;;;3.30;0.80;;;9.40;79.90;;;;;;5091510;28;20035;-65
2020/12/24 11:47:59;;;;;;;5.15;1.00;;;9.40;80.00;;;;;;5092663;28;20032;-64
2020/12/24 11:50:25;;;;;;;7.13;0.80;;;9.50;79.90;;;;;;5092556;28;20031;-65
2020/12/24 11:52:50;;;;;;;4.47;1.00;;;9.50;80.00;;;;;;5093039;28;20403;-65
2020/12/24 11:55:16;;;;;;;3.13;0.65;;;9.50;80.00;;;;;;5093176;28;20021;-65
2020/12/24 11:57:41;;;;;;;2.00;0.63;;;9.50;80.00;;;;;;5090803;28;20410;-64
2020/12/24 12:00:09;;;;;;;1.33;0.43;;;9.60;80.40;;;;;;5091539;28;20038;-65
2020/12/24 12:02:37;;;;;;;0.30;0.30;;;9.70;80.60;;;;;;5092602;28;20545;-75
2020/12/24 12:05:04;;;;;;;5.38;0.80;;;9.60;80.50;;;;;;5092262;28;20458;-66
2020/12/24 12:07:30;;;;;;;4.45;1.10;;;9.60;80.30;;;;;;5095903;28;20044;-65
2020/12/24 12:09:55;;;;;;;4.85;0.90;;;9.60;80.70;;;;;;5095858;28;20039;-64
2020/12/24 12:12:21;;;;;;;10.93;1.85;;;9.50;80.50;;;;;;5094480;28;20119;-64
2020/12/24 12:14:47;;;;;;;11.07;1.40;;;9.50;80.30;;;;;;5095071;28;20063;-64
2020/12/24 12:17:14;;;;;;;3.85;0.82;;;9.50;80.40;;;;;;5095225;28;20498;-66
2020/12/24 12:19:41;;;;;;;5.28;0.93;;;9.50;80.30;;;;;;5095940;28;20024;-64
2020/12/24 12:22:06;;;;;;;15.43;1.83;;;9.50;80.50;;;;;;5096487;28;20035;-65
2020/12/24 12:24:32;;;;;;;5.05;0.75;;;9.50;80.50;;;;;;5095813;28;20036;-65
2020/12/24 12:26:58;;;;;;;8.82;1.58;;;9.50;80.30;;;;;;5096247;28;20137;-65
2020/12/24 12:29:24;;;;;;;4.20;1.10;;;9.50;80.10;;;;;;5096338;28;20349;-65
2020/12/24 12:31:50;;;;;;;8.70;1.40;;;9.50;80.10;;;;;;5095230;28;20036;-64
2020/12/24 12:34:15;;;;;;;3.22;1.60;;;9.50;79.80;;;;;;5096193;28;20032;-62
2020/12/24 12:36:41;;;;;;;4.88;0.80;;;9.40;79.80;;;;;;5096099;28;20032;-62
2020/12/24 12:39:07;;;;;;;8.57;1.13;;;9.50;79.90;;;;;;5095461;28;20119;-62
2020/12/24 12:41:33;;;;;;;2.72;0.60;;;9.40;80.60;;;;;;5095843;28;20514;-63
2020/12/24 12:43:59;;;;;;;5.22;0.77;;;9.50;81.40;;;;;;5095876;28;20031;-63
2020/12/24 12:46:26;;;;;;;2.53;0.88;;;9.50;81.60;;;;;;5095106;28;20032;-62
2020/12/24 12:48:53;;;;;;;3.63;0.77;;;9.50;82.00;;;;;;5095914;28;20505;-62
2020/12/24 12:51:19;;;;;;;2.65;0.65;;;9.50;82.10;;;;;;5095952;28;20038;-63
2020/12/24 12:53:44;;;;;;;5.72;0.85;;;9.50;82.50;;;;;;5094864;28;20032;-62
2020/12/24 12:56:11;;;;;;;1.48;0.60;;;9.60;81.80;;;;;;5095697;28;20028;-63
2020/12/24 12:58:37;;;;;;;1.45;0.50;;;9.60;81.80;;;;;;5095418;28;20074;-62
2020/12/24 13:01:04;;;;;;;2.67;1.13;;;9.60;81.60;;;;;;5093562;28;20055;-62